Time,TemperatureF,DewpointF,PressureIn,WindDirection,WindDirectionDegrees,WindSpeedMPH,WindSpeedGustMPH,Humidity,HourlyPrecipIn,Conditions,Clouds,dailyrainin,SoftwareType,DateUTC
2013-10-07 00:07:00,72.7,63.0,29.84,SSW,203,1.0,5.0,71,0.00,,,0.00,weatherlink.com 1.10,2013-10-07 04:07:00,
2013-10-07 00:22:00,72.4,63.0,29.83,South,178,0.0,5.0,72,0.00,,,0.00,weatherlink.com 1.10,2013-10-07 04:22:00,
2013-10-07 00:37:00,71.8,63.0,29.82,West,273,2.0,3.0,74,0.00,,,0.00,weatherlink.com 1.10,2013-10-07 04:37:00,
2013-10-07 00:52:00,71.4,63.0,29.81,SSW,213,0.0,4.0,75,0.00,,,0.00,weatherlink.com 1.10,2013-10-07 04:52:00,
2013-10-07 01:07:00,71.2,63.0,29.81,SW,230,1.0,3.0,76,0.00,,,0.00,weatherlink.com 1.10,2013-10-07 05:07:00,
2013-10-07 01:22:00,70.1,63.0,29.81,SW,235,0.0,1.0,78,0.00,,,0.00,weatherlink.com 1.10,2013-10-07 05:22:00,
2013-10-07 01:38:00,69.1,63.0,29.80,West,265,1.0,2.0,81,0.00,,,0.00,weatherlink.com 1.10,2013-10-07 05:38:00,
2013-10-07 01:53:00,68.3,63.0,29.80,NW,313,0.0,3.0,84,0.00,,,0.00,weatherlink.com 1.10,2013-10-07 05:53:00,
2013-10-07 02:08:00,69.2,64.0,29.80,WNW,299,1.0,4.0,82,0.00,,,0.00,weatherlink.com 1.10,2013-10-07 06:08:00,
2013-10-07 02:23:00,68.5,63.0,29.80,WSW,257,0.0,3.0,83,0.00,,,0.00,weatherlink.com 1.10,2013-10-07 06:23:00,
2013-10-07 02:38:00,67.9,63.0,29.79,WSW,257,0.0,1.0,84,0.00,,,0.00,weatherlink.com 1.10,2013-10-07 06:38:00,
2013-10-07 02:53:00,67.7,63.0,29.79,WSW,257,1.0,1.0,85,0.00,,,0.00,weatherlink.com 1.10,2013-10-07 06:53:00,
2013-10-07 03:08:00,67.9,63.0,29.79,SW,215,0.0,2.0,85,0.00,,,0.00,weatherlink.com 1.10,2013-10-07 07:08:00,
2013-10-07 03:23:00,67.3,63.0,29.78,SSW,202,0.0,2.0,86,0.00,,,0.00,weatherlink.com 1.10,2013-10-07 07:23:00,
2013-10-07 03:38:00,67.3,63.0,29.77,NW,308,0.0,3.0,87,0.00,,,0.00,weatherlink.com 1.10,2013-10-07 07:38:00,
2013-10-07 03:53:00,66.5,63.0,29.76,NNW,336,0.0,2.0,89,0.00,,,0.00,weatherlink.com 1.10,2013-10-07 07:53:00,
2013-10-07 04:08:00,67.9,63.0,29.75,WNW,284,0.0,4.0,85,0.00,,,0.00,weatherlink.com 1.10,2013-10-07 08:08:00,
2013-10-07 04:23:00,70.5,64.0,29.75,SSW,213,2.0,9.0,80,0.00,,,0.00,weatherlink.com 1.10,2013-10-07 08:23:00,
2013-10-07 04:38:00,71.1,64.0,29.74,SSW,196,1.0,5.0,79,0.00,,,0.00,weatherlink.com 1.10,2013-10-07 08:38:00,
2013-10-07 04:53:00,71.1,64.0,29.75,West,260,1.0,8.0,79,0.00,,,0.00,weatherlink.com 1.10,2013-10-07 08:53:00,
2013-10-07 05:08:00,71.2,64.0,29.75,SSW,206,3.0,9.0,79,0.00,,,0.00,weatherlink.com 1.10,2013-10-07 09:08:00,
2013-10-07 05:23:00,71.3,65.0,29.74,SSW,199,2.0,10.0,79,0.00,,,0.00,weatherlink.com 1.10,2013-10-07 09:23:00,
2013-10-07 05:38:00,71.0,64.0,29.74,SSW,194,1.0,5.0,79,0.00,,,0.00,weatherlink.com 1.10,2013-10-07 09:38:00,
2013-10-07 05:53:00,70.6,64.0,29.74,SW,215,2.0,3.0,80,0.00,,,0.00,weatherlink.com 1.10,2013-10-07 09:53:00,
2013-10-07 06:08:00,70.1,64.0,29.73,South,182,0.0,2.0,81,0.00,,,0.00,weatherlink.com 1.10,2013-10-07 10:08:00,
2013-10-07 06:23:00,69.5,64.0,29.73,SSW,200,2.0,2.0,83,0.00,,,0.00,weatherlink.com 1.10,2013-10-07 10:23:00,
2013-10-07 06:38:00,69.8,64.0,29.72,SW,217,0.0,3.0,82,0.00,,,0.00,weatherlink.com 1.10,2013-10-07 10:38:00,
2013-10-07 06:53:00,69.2,65.0,29.72,South,169,1.0,2.0,85,0.00,,,0.00,weatherlink.com 1.10,2013-10-07 10:53:00,
2013-10-07 07:08:00,67.0,64.0,29.72,South,169,0.0,1.0,91,0.01,,,0.01,weatherlink.com 1.10,2013-10-07 11:08:00,
2013-10-07 07:23:00,66.2,65.0,29.71,South,169,1.0,1.0,94,0.03,,,0.03,weatherlink.com 1.10,2013-10-07 11:23:00,
2013-10-07 07:38:00,66.0,65.0,29.72,South,169,1.0,1.0,96,0.05,,,0.05,weatherlink.com 1.10,2013-10-07 11:38:00,
2013-10-07 07:53:00,65.9,65.0,29.69,NE,38,2.0,3.0,96,0.08,,,0.08,weatherlink.com 1.10,2013-10-07 11:53:00,
2013-10-07 08:08:00,66.2,65.0,29.70,NNW,332,2.0,3.0,97,0.09,,,0.10,weatherlink.com 1.10,2013-10-07 12:08:00,
2013-10-07 08:23:00,66.5,65.0,29.71,NNW,333,1.0,2.0,96,0.11,,,0.14,weatherlink.com 1.10,2013-10-07 12:23:00,
2013-10-07 08:43:00,64.7,63.0,29.72,East,82,0.0,5.0,93,0.15,,,0.22,weatherlink.com 1.10,2013-10-07 12:43:00,
2013-10-07 08:50:00,63.6,61.5,29.74,ESE,105,1.0,1.0,93,0.10,,,0.23,Wunderground v.1.15,2013-10-07 12:50:00,
2013-10-07 08:57:00,62.6,61.0,29.75,SE,126,0.0,3.0,93,0.15,,,0.24,weatherlink.com 1.10,2013-10-07 12:57:00,
2013-10-07 09:08:00,60.9,58.0,29.77,ESE,123,1.0,3.0,90,0.17,,,0.27,weatherlink.com 1.10,2013-10-07 13:08:00,
2013-10-07 09:15:00,59.9,57.9,29.78,SW,215,1.0,2.0,93,0.18,,,0.30,Wunderground v.1.15,2013-10-07 13:15:00,
2013-10-07 09:20:00,59.5,56.9,29.79,ENE,74,3.0,3.0,91,0.21,,,0.31,Wunderground v.1.15,2013-10-07 13:20:00,
2013-10-07 09:25:00,59.1,56.8,29.78,ENE,63,2.0,3.0,92,0.12,,,0.32,Wunderground v.1.15,2013-10-07 13:25:00,
2013-10-07 09:30:00,58.8,57.1,29.80,East,85,1.0,3.0,94,0.13,,,0.33,Wunderground v.1.15,2013-10-07 13:30:00,
2013-10-07 09:35:00,58.5,56.8,29.80,East,86,2.0,2.0,94,0.56,,,0.36,Wunderground v.1.15,2013-10-07 13:35:00,
2013-10-07 09:41:00,58.1,56.7,29.79,ENE,70,1.0,3.0,95,0.25,,,0.39,Wunderground v.1.15,2013-10-07 13:41:00,
2013-10-07 09:46:00,57.9,56.5,29.80,ENE,70,0.0,1.0,95,0.31,,,0.41,Wunderground v.1.15,2013-10-07 13:46:00,
2013-10-07 09:51:00,57.8,56.4,29.80,ENE,70,2.0,2.0,95,0.40,,,0.44,Wunderground v.1.15,2013-10-07 13:51:00,
2013-10-07 09:56:00,57.7,56.6,29.80,East,89,1.0,2.0,96,0.40,,,0.48,Wunderground v.1.15,2013-10-07 13:56:00,
2013-10-07 10:01:00,57.6,56.5,29.81,East,89,1.0,1.0,96,0.30,,,0.50,Wunderground v.1.15,2013-10-07 14:01:00,
2013-10-07 10:06:00,57.4,56.0,29.81,East,89,1.0,2.0,95,0.31,,,0.53,Wunderground v.1.15,2013-10-07 14:06:00,
2013-10-07 10:11:00,57.5,56.4,29.79,East,89,1.0,1.0,96,0.26,,,0.55,Wunderground v.1.15,2013-10-07 14:11:00,
2013-10-07 10:17:00,57.2,56.1,29.78,East,89,1.0,1.0,96,0.24,,,0.57,Wunderground v.1.15,2013-10-07 14:17:00,
2013-10-07 10:22:00,57.2,56.4,29.80,ESE,119,1.0,1.0,97,0.24,,,0.59,Wunderground v.1.15,2013-10-07 14:22:00,
2013-10-07 10:27:00,57.1,56.0,29.81,ESE,119,1.0,2.0,96,0.32,,,0.62,Wunderground v.1.15,2013-10-07 14:27:00,
2013-10-07 10:32:00,57.0,55.6,29.80,ESE,119,0.0,1.0,95,0.11,,,0.62,Wunderground v.1.15,2013-10-07 14:32:00,
2013-10-07 10:37:00,57.1,56.0,29.80,ESE,119,0.0,1.0,96,0.06,,,0.62,Wunderground v.1.15,2013-10-07 14:37:00,
2013-10-07 10:42:00,57.0,55.6,29.80,SW,221,1.0,2.0,95,0.04,,,0.62,Wunderground v.1.15,2013-10-07 14:42:00,
2013-10-07 10:47:00,57.1,55.1,29.79,SSE,148,1.0,3.0,93,0.00,,,0.62,Wunderground v.1.15,2013-10-07 14:47:00,
2013-10-07 10:52:00,57.1,55.4,29.80,SE,140,1.0,2.0,94,0.00,,,0.63,Wunderground v.1.15,2013-10-07 14:52:00,
2013-10-07 10:57:00,57.0,55.3,29.79,SE,135,1.0,2.0,94,0.00,,,0.63,Wunderground v.1.15,2013-10-07 14:57:00,
2013-10-07 11:02:00,56.8,55.4,29.80,SE,135,1.0,2.0,95,0.00,,,0.63,Wunderground v.1.15,2013-10-07 15:02:00,
2013-10-07 11:07:00,56.8,55.7,29.81,SE,138,2.0,2.0,96,0.04,,,0.64,Wunderground v.1.15,2013-10-07 15:07:00,
2013-10-07 11:12:00,56.7,55.6,29.78,East,80,0.0,5.0,96,0.06,,,0.65,Wunderground v.1.15,2013-10-07 15:12:00,
2013-10-07 11:17:00,56.5,55.4,29.81,SSW,205,2.0,5.0,96,0.12,,,0.66,Wunderground v.1.15,2013-10-07 15:17:00,
2013-10-07 11:22:00,56.5,55.1,29.79,East,85,1.0,3.0,95,0.11,,,0.66,Wunderground v.1.15,2013-10-07 15:22:00,
2013-10-07 11:27:00,56.6,55.5,29.81,SW,224,2.0,3.0,96,0.07,,,0.67,Wunderground v.1.15,2013-10-07 15:27:00,
2013-10-07 11:33:00,56.6,55.5,29.81,East,83,2.0,2.0,96,0.07,,,0.67,Wunderground v.1.15,2013-10-07 15:33:00,
2013-10-07 11:38:00,56.5,55.4,29.81,East,83,0.0,2.0,96,0.05,,,0.67,Wunderground v.1.15,2013-10-07 15:38:00,
2013-10-07 11:43:00,56.5,55.4,29.80,East,83,1.0,2.0,96,0.04,,,0.68,Wunderground v.1.15,2013-10-07 15:43:00,
2013-10-07 11:48:00,56.3,55.2,29.78,East,83,1.0,2.0,96,0.12,,,0.69,Wunderground v.1.15,2013-10-07 15:48:00,
2013-10-07 11:53:00,56.3,55.5,29.81,East,88,0.0,1.0,97,0.10,,,0.70,Wunderground v.1.15,2013-10-07 15:53:00,
2013-10-07 11:58:00,56.3,55.5,29.79,East,88,0.0,1.0,97,0.07,,,0.70,Wunderground v.1.15,2013-10-07 15:58:00,
2013-10-07 12:04:00,56.5,55.7,29.80,East,88,0.0,1.0,97,0.04,,,0.70,Wunderground v.1.15,2013-10-07 16:04:00,
2013-10-07 12:10:00,56.7,56.1,29.80,East,88,1.0,1.0,98,0.00,,,0.70,Wunderground v.1.15,2013-10-07 16:10:00,
2013-10-07 12:15:00,56.8,56.0,29.79,East,88,0.0,1.0,97,0.00,,,0.70,Wunderground v.1.15,2013-10-07 16:15:00,
2013-10-07 12:20:00,56.8,56.0,29.81,ESE,119,0.0,1.0,97,0.00,,,0.70,Wunderground v.1.15,2013-10-07 16:20:00,
2013-10-07 12:25:00,56.8,56.0,29.81,SSW,204,1.0,2.0,97,0.00,,,0.70,Wunderground v.1.15,2013-10-07 16:25:00,
2013-10-07 12:30:00,56.8,55.4,29.81,SSW,205,1.0,2.0,95,0.00,,,0.70,Wunderground v.1.15,2013-10-07 16:30:00,
2013-10-07 12:35:00,57.0,56.2,29.82,SSW,204,0.0,2.0,97,0.00,,,0.70,Wunderground v.1.15,2013-10-07 16:35:00,
2013-10-07 12:40:00,57.2,56.1,29.81,SE,134,0.0,1.0,96,0.00,,,0.70,Wunderground v.1.15,2013-10-07 16:40:00,
2013-10-07 12:45:00,57.8,57.0,29.82,SE,134,1.0,1.0,97,0.00,,,0.70,Wunderground v.1.15,2013-10-07 16:45:00,
2013-10-07 12:50:00,58.3,57.2,29.81,SE,134,2.0,2.0,96,0.00,,,0.70,Wunderground v.1.15,2013-10-07 16:50:00,
2013-10-07 12:55:00,58.4,57.3,29.81,SE,134,0.0,2.0,96,0.00,,,0.70,Wunderground v.1.15,2013-10-07 16:55:00,
2013-10-07 13:00:00,58.6,57.2,29.81,East,82,3.0,3.0,95,0.00,,,0.70,Wunderground v.1.15,2013-10-07 17:00:00,
2013-10-07 13:06:00,59.2,56.9,29.81,East,97,0.0,5.0,92,0.00,,,0.70,Wunderground v.1.15,2013-10-07 17:06:00,
2013-10-07 13:12:00,59.3,57.6,29.81,ENE,57,3.0,3.0,94,0.00,,,0.70,Wunderground v.1.15,2013-10-07 17:12:00,
2013-10-07 13:17:00,59.8,56.2,29.81,ENE,70,3.0,3.0,88,0.00,,,0.70,Wunderground v.1.15,2013-10-07 17:17:00,
2013-10-07 13:22:00,60.2,55.3,29.81,ENE,78,3.0,8.0,84,0.00,,,0.70,Wunderground v.1.15,2013-10-07 17:22:00,
2013-10-07 13:27:00,60.2,55.3,29.82,ENE,69,3.0,8.0,84,0.00,,,0.70,Wunderground v.1.15,2013-10-07 17:27:00,
2013-10-07 13:32:00,60.4,55.2,29.82,ESE,117,4.0,5.0,83,0.00,,,0.70,Wunderground v.1.15,2013-10-07 17:32:00,
2013-10-07 13:37:00,61.2,55.7,29.82,ENE,75,1.0,5.0,82,0.00,,,0.70,Wunderground v.1.15,2013-10-07 17:37:00,
2013-10-07 13:42:00,61.5,54.9,29.82,NW,323,2.0,7.0,79,0.00,,,0.70,Wunderground v.1.15,2013-10-07 17:42:00,
2013-10-07 13:48:00,61.9,55.7,29.82,SE,129,1.0,7.0,80,0.00,,,0.70,Wunderground v.1.15,2013-10-07 17:48:00,
2013-10-07 13:55:00,63.0,55.7,29.82,NNW,329,1.0,5.0,77,0.00,,,0.70,Wunderground v.1.15,2013-10-07 17:55:00,
2013-10-07 14:00:00,63.0,54.9,29.82,SW,222,3.0,4.0,75,0.00,,,0.70,Wunderground v.1.15,2013-10-07 18:00:00,
2013-10-07 14:05:00,62.9,54.5,29.83,SSW,202,3.0,4.0,74,0.00,,,0.70,Wunderground v.1.15,2013-10-07 18:05:00,
2013-10-07 14:11:00,63.4,55.0,29.83,NE,36,5.0,5.0,74,0.00,,,0.70,Wunderground v.1.15,2013-10-07 18:11:00,
2013-10-07 14:16:00,63.5,53.9,29.83,ESE,102,2.0,5.0,71,0.00,,,0.70,Wunderground v.1.15,2013-10-07 18:16:00,
2013-10-07 14:21:00,62.8,53.6,29.83,ENE,70,1.0,3.0,72,0.00,,,0.70,Wunderground v.1.15,2013-10-07 18:21:00,
2013-10-07 14:27:00,62.6,53.4,29.84,North,5,1.0,4.0,72,0.00,,,0.70,Wunderground v.1.15,2013-10-07 18:27:00,
2013-10-07 14:32:00,63.0,53.1,29.84,South,169,1.0,7.0,70,0.00,,,0.70,Wunderground v.1.15,2013-10-07 18:32:00,
2013-10-07 14:37:00,63.4,53.0,29.84,SSE,157,1.0,7.0,69,0.00,,,0.70,Wunderground v.1.15,2013-10-07 18:37:00,
2013-10-07 14:42:00,63.1,53.2,29.85,North,5,2.0,3.0,70,0.00,,,0.70,Wunderground v.1.15,2013-10-07 18:42:00,
2013-10-07 14:47:00,63.2,53.6,29.85,East,100,1.0,4.0,71,0.00,,,0.70,Wunderground v.1.15,2013-10-07 18:47:00,
2013-10-07 14:52:00,62.3,52.4,29.85,NE,36,0.0,3.0,70,0.00,,,0.70,Wunderground v.1.15,2013-10-07 18:52:00,
2013-10-07 14:57:00,62.3,52.4,29.85,NNE,27,3.0,3.0,70,0.00,,,0.70,Wunderground v.1.15,2013-10-07 18:57:00,
2013-10-07 15:02:00,62.7,52.4,29.85,NE,34,2.0,5.0,69,0.00,,,0.70,Wunderground v.1.15,2013-10-07 19:02:00,
2013-10-07 15:07:00,63.1,51.6,29.86,WNW,291,1.0,7.0,66,0.00,,,0.70,Wunderground v.1.15,2013-10-07 19:07:00,
2013-10-07 15:14:00,63.3,50.9,29.87,East,86,3.0,7.0,64,0.00,,,0.70,Wunderground v.1.15,2013-10-07 19:14:00,
2013-10-07 15:20:00,62.5,50.6,29.87,NE,46,2.0,3.0,65,0.00,,,0.70,Wunderground v.1.15,2013-10-07 19:20:00,
2013-10-07 15:24:00,62.1,49.8,29.87,NE,40,1.0,3.0,64,0.00,,,0.70,Wunderground v.1.15,2013-10-07 19:24:00,
2013-10-07 15:30:00,61.9,51.2,29.88,SE,135,4.0,4.0,68,0.00,,,0.70,Wunderground v.1.15,2013-10-07 19:30:00,
2013-10-07 15:35:00,62.4,49.2,29.89,NE,43,4.0,7.0,62,0.00,,,0.70,Wunderground v.1.15,2013-10-07 19:35:00,
2013-10-07 15:40:00,62.0,48.4,29.89,NNE,18,3.0,3.0,61,0.00,,,0.70,Wunderground v.1.15,2013-10-07 19:40:00,
2013-10-07 15:45:00,61.3,47.7,29.89,NNW,339,2.0,7.0,61,0.00,,,0.70,Wunderground v.1.15,2013-10-07 19:45:00,
2013-10-07 15:50:00,61.0,47.9,29.90,ESE,107,4.0,4.0,62,0.00,,,0.70,Wunderground v.1.15,2013-10-07 19:50:00,
2013-10-07 15:55:00,60.8,47.7,29.90,East,80,2.0,5.0,62,0.00,,,0.70,Wunderground v.1.15,2013-10-07 19:55:00,
2013-10-07 16:01:00,60.7,47.6,29.90,ENE,78,2.0,3.0,62,0.00,,,0.70,Wunderground v.1.15,2013-10-07 20:01:00,
2013-10-07 16:06:00,61.3,47.3,29.91,SE,134,1.0,6.0,60,0.00,,,0.70,Wunderground v.1.15,2013-10-07 20:06:00,
2013-10-07 16:11:00,61.6,47.1,29.91,SW,217,3.0,9.0,59,0.00,,,0.70,Wunderground v.1.15,2013-10-07 20:11:00,
2013-10-07 16:16:00,61.2,47.2,29.91,East,97,3.0,9.0,60,0.00,,,0.70,Wunderground v.1.15,2013-10-07 20:16:00,
2013-10-07 16:21:00,61.3,46.8,29.91,East,79,6.0,7.0,59,0.00,,,0.70,Wunderground v.1.15,2013-10-07 20:21:00,
2013-10-07 16:26:00,61.0,47.0,29.92,ESE,108,5.0,9.0,60,0.00,,,0.70,Wunderground v.1.15,2013-10-07 20:26:00,
2013-10-07 16:31:00,60.8,47.7,29.91,NE,43,6.0,6.0,62,0.00,,,0.70,Wunderground v.1.15,2013-10-07 20:31:00,
2013-10-07 16:36:00,60.6,47.1,29.91,ENE,59,2.0,6.0,61,0.00,,,0.70,Wunderground v.1.15,2013-10-07 20:36:00,
2013-10-07 16:41:00,60.5,47.0,29.91,ENE,76,1.0,3.0,61,0.00,,,0.70,Wunderground v.1.15,2013-10-07 20:41:00,
2013-10-07 16:46:00,60.5,46.5,29.91,ENE,70,2.0,6.0,60,0.00,,,0.70,Wunderground v.1.15,2013-10-07 20:46:00,
2013-10-07 16:51:00,60.2,47.1,29.91,North,355,1.0,4.0,62,0.00,,,0.70,Wunderground v.1.15,2013-10-07 20:51:00,
2013-10-07 16:56:00,60.3,46.4,29.92,South,171,2.0,6.0,60,0.00,,,0.70,Wunderground v.1.15,2013-10-07 20:56:00,
2013-10-07 17:01:00,60.4,46.9,29.92,ESE,119,1.0,2.0,61,0.00,,,0.70,Wunderground v.1.15,2013-10-07 21:01:00,
2013-10-07 17:06:00,60.2,46.7,29.92,NE,46,1.0,5.0,61,0.00,,,0.70,Wunderground v.1.15,2013-10-07 21:06:00,
2013-10-07 17:11:00,60.3,45.9,29.92,ESE,102,2.0,6.0,59,0.00,,,0.70,Wunderground v.1.15,2013-10-07 21:11:00,
2013-10-07 17:17:00,60.4,46.0,29.92,NE,36,2.0,6.0,59,0.00,,,0.70,Wunderground v.1.15,2013-10-07 21:17:00,
2013-10-07 17:22:00,60.6,46.2,29.92,NNE,22,3.0,3.0,59,0.00,,,0.70,Wunderground v.1.15,2013-10-07 21:22:00,
2013-10-07 17:27:00,60.5,45.6,29.92,SW,232,4.0,6.0,58,0.00,,,0.70,Wunderground v.1.15,2013-10-07 21:27:00,
2013-10-07 17:32:00,60.7,45.4,29.93,East,90,1.0,4.0,57,0.00,,,0.70,Wunderground v.1.15,2013-10-07 21:32:00,
2013-10-07 17:37:00,60.5,46.1,29.93,NE,56,1.0,4.0,59,0.00,,,0.70,Wunderground v.1.15,2013-10-07 21:37:00,
2013-10-07 17:44:00,60.6,45.7,29.93,North,9,2.0,4.0,58,0.00,,,0.70,Wunderground v.1.15,2013-10-07 21:44:00,
2013-10-07 17:50:00,60.3,45.5,29.93,ESE,121,1.0,2.0,58,0.00,,,0.70,Wunderground v.1.15,2013-10-07 21:50:00,
2013-10-07 17:55:00,60.1,46.2,29.93,ENE,74,0.0,3.0,60,0.00,,,0.70,Wunderground v.1.15,2013-10-07 21:55:00,
2013-10-07 18:00:00,59.7,45.8,29.93,ENE,74,1.0,2.0,60,0.00,,,0.70,Wunderground v.1.15,2013-10-07 22:00:00,
2013-10-07 18:05:00,59.3,46.7,29.94,East,86,1.0,3.0,63,0.00,,,0.70,Wunderground v.1.15,2013-10-07 22:05:00,
2013-10-07 18:10:00,59.1,46.9,29.94,ESE,105,1.0,1.0,64,0.00,,,0.70,Wunderground v.1.15,2013-10-07 22:10:00,
2013-10-07 18:15:00,58.4,47.1,29.94,ESE,105,1.0,1.0,66,0.00,,,0.70,Wunderground v.1.15,2013-10-07 22:15:00,
2013-10-07 18:20:00,57.7,47.6,29.94,ESE,105,0.0,1.0,69,0.00,,,0.70,Wunderground v.1.15,2013-10-07 22:20:00,
2013-10-07 18:25:00,57.2,47.1,29.94,ESE,105,0.0,2.0,69,0.00,,,0.70,Wunderground v.1.15,2013-10-07 22:25:00,
2013-10-07 18:30:00,57.0,47.3,29.94,ESE,105,1.0,1.0,70,0.00,,,0.70,Wunderground v.1.15,2013-10-07 22:30:00,
2013-10-07 18:35:00,57.0,47.7,29.95,ESE,105,0.0,1.0,71,0.00,,,0.70,Wunderground v.1.15,2013-10-07 22:35:00,
2013-10-07 18:40:00,56.5,48.7,29.95,ESE,105,0.0,1.0,75,0.00,,,0.70,Wunderground v.1.15,2013-10-07 22:40:00,
2013-10-07 18:45:00,55.8,49.0,29.95,ESE,105,0.0,1.0,78,0.00,,,0.70,Wunderground v.1.15,2013-10-07 22:45:00,
2013-10-07 18:50:00,55.2,49.1,29.96,ESE,105,1.0,1.0,80,0.00,,,0.70,Wunderground v.1.15,2013-10-07 22:50:00,
2013-10-07 18:56:00,55.2,48.5,29.96,ESE,105,0.0,1.0,78,0.00,,,0.70,Wunderground v.1.15,2013-10-07 22:56:00,
2013-10-07 19:01:00,54.4,48.4,29.97,ESE,105,0.0,0.0,80,0.00,,,0.70,Wunderground v.1.15,2013-10-07 23:01:00,
2013-10-07 19:06:00,53.7,48.3,29.98,ESE,105,1.0,1.0,82,0.00,,,0.70,Wunderground v.1.15,2013-10-07 23:06:00,
2013-10-07 19:11:00,53.3,47.6,29.98,ESE,105,1.0,1.0,81,0.00,,,0.70,Wunderground v.1.15,2013-10-07 23:11:00,
2013-10-07 19:16:00,53.0,48.0,29.98,ESE,105,0.0,1.0,83,0.00,,,0.70,Wunderground v.1.15,2013-10-07 23:16:00,
2013-10-07 19:21:00,52.9,48.5,29.98,ESE,105,0.0,1.0,85,0.00,,,0.70,Wunderground v.1.15,2013-10-07 23:21:00,
2013-10-07 19:27:00,52.5,48.1,29.99,ESE,105,1.0,1.0,85,0.00,,,0.70,Wunderground v.1.15,2013-10-07 23:27:00,
2013-10-07 19:32:00,52.4,48.0,29.99,ESE,105,0.0,1.0,85,0.00,,,0.70,Wunderground v.1.15,2013-10-07 23:32:00,
2013-10-07 19:37:00,52.2,48.1,30.00,ESE,105,0.0,1.0,86,0.00,,,0.70,Wunderground v.1.15,2013-10-07 23:37:00,
2013-10-07 19:42:00,51.9,47.8,30.00,ESE,105,0.0,0.0,86,0.00,,,0.70,Wunderground v.1.15,2013-10-07 23:42:00,
2013-10-07 19:47:00,51.9,47.8,30.00,ESE,105,0.0,1.0,86,0.00,,,0.70,Wunderground v.1.15,2013-10-07 23:47:00,
2013-10-07 19:52:00,51.9,47.0,30.00,ESE,105,0.0,1.0,84,0.00,,,0.70,weatherlink.com 1.10,2013-10-07 23:52:00,
2013-10-07 19:57:00,51.7,47.3,30.00,ESE,105,0.0,1.0,85,0.00,,,0.70,Wunderground v.1.15,2013-10-07 23:57:00,
2013-10-07 20:02:00,51.3,47.6,30.01,ESE,105,0.0,1.0,87,0.00,,,0.70,Wunderground v.1.15,2013-10-08 00:02:00,
2013-10-07 20:07:00,51.0,47.6,30.01,ESE,105,0.0,1.0,88,0.00,,,0.70,Wunderground v.1.15,2013-10-08 00:07:00,
2013-10-07 20:12:00,50.7,47.6,30.01,ESE,105,1.0,1.0,89,0.00,,,0.70,Wunderground v.1.15,2013-10-08 00:12:00,
2013-10-07 20:17:00,50.5,47.7,30.02,ESE,105,0.0,1.0,90,0.00,,,0.70,Wunderground v.1.15,2013-10-08 00:17:00,
2013-10-07 20:22:00,50.4,47.6,30.02,ESE,105,0.0,1.0,90,0.00,,,0.70,Wunderground v.1.15,2013-10-08 00:22:00,
2013-10-07 20:27:00,50.2,47.4,30.02,ESE,105,0.0,1.0,90,0.00,,,0.70,Wunderground v.1.15,2013-10-08 00:27:00,
2013-10-07 20:32:00,50.1,47.3,30.02,ESE,105,0.0,1.0,90,0.00,,,0.70,Wunderground v.1.15,2013-10-08 00:32:00,
2013-10-07 20:37:00,49.8,47.6,30.02,ESE,105,0.0,2.0,92,0.00,,,0.70,Wunderground v.1.15,2013-10-08 00:37:00,
2013-10-07 20:42:00,49.7,47.5,30.03,ESE,105,0.0,1.0,92,0.00,,,0.70,Wunderground v.1.15,2013-10-08 00:42:00,
2013-10-07 20:47:00,49.6,47.7,30.03,ESE,105,1.0,1.0,93,0.00,,,0.70,Wunderground v.1.15,2013-10-08 00:47:00,
2013-10-07 20:52:00,49.7,47.8,30.03,ESE,105,1.0,2.0,93,0.00,,,0.70,Wunderground v.1.15,2013-10-08 00:52:00,
2013-10-07 20:57:00,49.6,47.4,30.03,ESE,118,2.0,3.0,92,0.00,,,0.70,Wunderground v.1.15,2013-10-08 00:57:00,
2013-10-07 21:02:00,49.8,47.6,30.03,ESE,118,0.0,1.0,92,0.00,,,0.70,Wunderground v.1.15,2013-10-08 01:02:00,
2013-10-07 21:07:00,49.8,47.3,30.03,ESE,121,2.0,3.0,91,0.00,,,0.70,Wunderground v.1.15,2013-10-08 01:07:00,
2013-10-07 21:12:00,50.0,47.5,30.03,ESE,121,0.0,1.0,91,0.00,,,0.70,Wunderground v.1.15,2013-10-08 01:12:00,
2013-10-07 21:17:00,49.6,47.1,30.04,ESE,121,1.0,1.0,91,0.00,,,0.70,Wunderground v.1.15,2013-10-08 01:17:00,
2013-10-07 21:22:00,49.4,46.9,30.04,ESE,121,1.0,1.0,91,0.00,,,0.70,Wunderground v.1.15,2013-10-08 01:22:00,
2013-10-07 21:29:00,49.3,47.1,30.05,ESE,121,0.0,2.0,92,0.00,,,0.70,Wunderground v.1.15,2013-10-08 01:29:00,
2013-10-07 21:35:00,49.1,46.6,30.05,ESE,121,0.0,1.0,91,0.00,,,0.70,Wunderground v.1.15,2013-10-08 01:35:00,
2013-10-07 21:40:00,49.2,47.0,30.05,ESE,121,0.0,1.0,92,0.00,,,0.70,Wunderground v.1.15,2013-10-08 01:40:00,
2013-10-07 21:45:00,49.2,47.3,30.06,ESE,121,0.0,1.0,93,0.00,,,0.70,Wunderground v.1.15,2013-10-08 01:45:00,
2013-10-07 21:50:00,49.0,46.8,30.06,ESE,121,0.0,1.0,92,0.00,,,0.70,Wunderground v.1.15,2013-10-08 01:50:00,
2013-10-07 21:55:00,49.0,46.8,30.06,ESE,121,0.0,2.0,92,0.00,,,0.70,Wunderground v.1.15,2013-10-08 01:55:00,
2013-10-07 22:01:00,48.8,47.0,30.06,ESE,121,1.0,1.0,92,0.00,,,0.70,weatherlink.com 1.10,2013-10-08 02:01:00,
2013-10-07 22:06:00,48.7,46.5,30.06,ESE,121,0.0,1.0,92,0.00,,,0.70,Wunderground v.1.15,2013-10-08 02:06:00,
2013-10-07 22:11:00,48.5,46.6,30.07,ESE,121,1.0,1.0,93,0.00,,,0.70,Wunderground v.1.15,2013-10-08 02:11:00,
2013-10-07 22:16:00,48.4,46.5,30.07,ESE,121,0.0,1.0,93,0.00,,,0.70,Wunderground v.1.15,2013-10-08 02:16:00,
2013-10-07 22:21:00,48.2,46.3,30.07,ESE,121,0.0,1.0,93,0.00,,,0.70,Wunderground v.1.15,2013-10-08 02:21:00,
2013-10-07 22:26:00,48.1,46.2,30.07,ESE,121,0.0,1.0,93,0.00,,,0.70,Wunderground v.1.15,2013-10-08 02:26:00,
2013-10-07 22:31:00,47.9,46.0,30.07,ESE,121,0.0,1.0,93,0.00,,,0.70,Wunderground v.1.15,2013-10-08 02:31:00,
2013-10-07 22:36:00,47.9,46.3,30.08,ESE,121,0.0,1.0,94,0.00,,,0.70,Wunderground v.1.15,2013-10-08 02:36:00,
2013-10-07 22:41:00,47.8,46.2,30.07,ESE,121,0.0,1.0,94,0.00,,,0.70,Wunderground v.1.15,2013-10-08 02:41:00,
2013-10-07 22:46:00,47.6,45.7,30.07,ESE,121,1.0,1.0,93,0.00,,,0.70,Wunderground v.1.15,2013-10-08 02:46:00,
2013-10-07 22:52:00,47.5,45.3,30.07,ESE,121,1.0,1.0,92,0.00,,,0.70,Wunderground v.1.15,2013-10-08 02:52:00,
2013-10-07 22:57:00,47.5,45.6,30.07,ESE,121,0.0,1.0,93,0.00,,,0.70,Wunderground v.1.15,2013-10-08 02:57:00,
2013-10-07 23:02:00,47.3,45.4,30.08,ESE,121,0.0,1.0,93,0.00,,,0.70,Wunderground v.1.15,2013-10-08 03:02:00,
2013-10-07 23:07:00,47.1,45.5,30.08,ESE,121,0.0,1.0,94,0.00,,,0.70,Wunderground v.1.15,2013-10-08 03:07:00,
2013-10-07 23:12:00,47.1,45.5,30.08,ESE,121,0.0,1.0,94,0.00,,,0.70,Wunderground v.1.15,2013-10-08 03:12:00,
2013-10-07 23:17:00,47.1,45.5,30.08,ESE,121,0.0,2.0,94,0.00,,,0.70,Wunderground v.1.15,2013-10-08 03:17:00,
2013-10-07 23:22:00,47.0,45.4,30.09,ESE,121,0.0,2.0,94,0.00,,,0.70,Wunderground v.1.15,2013-10-08 03:22:00,
2013-10-07 23:27:00,47.0,45.6,30.09,ESE,121,0.0,2.0,95,0.00,,,0.70,Wunderground v.1.15,2013-10-08 03:27:00,
2013-10-07 23:32:00,47.1,45.7,30.09,ESE,121,1.0,1.0,95,0.00,,,0.70,Wunderground v.1.15,2013-10-08 03:32:00,
2013-10-07 23:37:00,47.1,45.7,30.09,ESE,121,0.0,1.0,95,0.00,,,0.70,Wunderground v.1.15,2013-10-08 03:37:00,
2013-10-07 23:42:00,47.0,45.1,30.09,ESE,121,0.0,0.0,93,0.00,,,0.70,Wunderground v.1.15,2013-10-08 03:42:00,
2013-10-07 23:47:00,46.7,45.1,30.09,ESE,121,0.0,0.0,94,0.00,,,0.70,Wunderground v.1.15,2013-10-08 03:47:00,
2013-10-07 23:53:00,46.5,44.9,30.09,ESE,121,0.0,1.0,94,0.00,,,0.70,Wunderground v.1.15,2013-10-08 03:53:00,
2013-10-07 23:59:00,46.5,44.9,30.10,ESE,121,0.0,2.0,94,0.00,,,0.70,Wunderground v.1.15,2013-10-08 03:59:00,